createdAt,value
2018-02-17T00:00:04.326Z,48
2018-02-17T00:15:05.206Z,48
2018-02-17T00:30:07.831Z,47
2018-02-17T00:45:06.282Z,47
2018-02-17T01:00:04.811Z,47
2018-02-17T01:15:05.185Z,48
2018-02-17T01:30:05.001Z,47
2018-02-17T01:45:04.476Z,48
2018-02-17T02:00:04.874Z,47
2018-02-17T02:15:05.229Z,48
2018-02-17T02:30:04.375Z,47
2018-02-17T02:45:05.449Z,47
2018-02-17T03:00:04.654Z,49
2018-02-17T03:15:04.610Z,48
2018-02-17T03:30:04.823Z,48
2018-02-17T03:45:06.010Z,48
2018-02-17T04:01:12.607Z,48
2018-02-17T04:15:04.517Z,48
2018-02-17T04:30:05.532Z,48
2018-02-17T04:45:04.670Z,48
2018-02-17T05:00:04.761Z,47
2018-02-17T05:15:04.859Z,48
2018-02-17T05:30:06.480Z,48
2018-02-17T05:45:05.047Z,47
2018-02-17T06:00:05.134Z,47
2018-02-17T06:15:05.031Z,47
2018-02-17T06:30:05.214Z,48
2018-02-17T06:45:04.772Z,48
2018-02-17T07:00:04.910Z,48
2018-02-17T07:15:04.368Z,47
2018-02-17T07:30:05.143Z,47
2018-02-17T07:45:04.568Z,47
2018-02-17T08:00:07.717Z,47
2018-02-17T08:15:05.989Z,47
2018-02-17T08:30:07.727Z,48
2018-02-17T08:45:05.860Z,48
2018-02-17T09:00:07.562Z,48
2018-02-17T09:15:04.544Z,48
2018-02-17T09:30:06.293Z,49
2018-02-17T09:45:05.410Z,49
2018-02-17T10:00:04.512Z,48
2018-02-17T10:15:04.674Z,49
2018-02-17T10:30:04.815Z,49
2018-02-17T10:45:05.450Z,50
2018-02-17T11:00:05.223Z,51
2018-02-17T11:15:06.402Z,52
2018-02-17T11:30:06.184Z,49
2018-02-17T11:45:08.070Z,50
2018-02-17T12:00:06.450Z,51
2018-02-17T12:15:04.415Z,51
2018-02-17T12:30:06.209Z,49
2018-02-17T12:45:07.609Z,51
2018-02-17T13:00:04.574Z,50
2018-02-17T13:15:06.077Z,53
2018-02-17T13:32:16.425Z,52
2018-02-17T13:45:04.383Z,52
2018-02-17T14:00:07.966Z,52
2018-02-17T14:15:04.512Z,52
2018-02-17T14:30:06.124Z,53
2018-02-17T14:45:04.584Z,53
2018-02-17T15:00:04.924Z,54
2018-02-17T15:15:04.948Z,49
2018-02-17T15:30:04.678Z,50
2018-02-17T15:45:05.085Z,51
2018-02-17T16:00:04.474Z,51
2018-02-17T16:15:04.488Z,52
2018-02-17T16:30:05.280Z,52
2018-02-17T16:45:04.804Z,53
2018-02-17T17:00:04.890Z,51
2018-02-17T17:15:04.523Z,50
2018-02-17T17:30:05.215Z,49
2018-02-17T17:45:05.848Z,49
2018-02-17T18:00:05.255Z,49
2018-02-17T18:15:08.257Z,49
2018-02-17T18:30:04.895Z,48
2018-02-17T18:45:05.242Z,46
2018-02-17T19:00:05.109Z,46
2018-02-17T19:15:04.611Z,46
2018-02-17T19:30:04.348Z,47
2018-02-17T19:45:04.869Z,46
2018-02-17T20:00:05.230Z,47
2018-02-17T20:15:04.606Z,46
2018-02-17T20:30:04.767Z,46
2018-02-17T20:45:04.522Z,46
2018-02-17T21:00:08.073Z,46
2018-02-17T21:15:04.667Z,47
2018-02-17T21:30:04.466Z,46
2018-02-17T21:45:04.359Z,47
2018-02-17T22:00:04.868Z,48
2018-02-17T22:15:05.264Z,48
2018-02-17T22:30:04.926Z,47
2018-02-17T22:45:04.808Z,47
2018-02-17T23:00:05.219Z,46
2018-02-17T23:15:05.162Z,46
2018-02-17T23:30:04.774Z,46
2018-02-17T23:45:05.263Z,47
